Decoded Metar for KJKL (NOCTOR/JACKSON in KY, USA) (IATA:JKL) | Meteo·Mobile Aviation Weather
aviador You're here:

KJKL Decoded Metar

NOCTOR/JACKSON in KY, USA
Report Time2018-11-18 23:53:00
UTC Time2018-11-19 00:39:00
Flight Rules vfr VFR
Wind210° at 03 kt
W.Decomp.*RWY 19: 2.7 kt HW 1.2 kt RCW
W.Rank210° ranks 2
Current wind is below 210° avg. (3.9)
Visibility9999 m
Phenomena:N/A
Clouds:N/A
Expected CloudBase > 2,800 ft AGL from Temp-Dew spread
CeilingNone
Temp11°C (ISA -1)
Dew Point04°C (62% RH)
AAT8.6°C
QNH1020 hPa
Density Alt1,093 ft
Elevation1,365 ft
Report Wrong Elevation
Raw Report
METAR KJKL 182353Z AUTO 21003KT 10SM CLR 11/04 A3013 RMK AO2 SLP205
T01110044 10167 20111 55002=

Extra information for KJKL:More info

Metar Taf Metar & Taf Last 4 Metars F.Rules Stats Wind Profile Meteogram Temp Stats Airport Information Weather charts Add Link Nearby VenuesMetar ALERT Operation Metar Decoded Social comments

AIRNAV info for KJKL